createdAt,value
2018-10-05T00:02:12.001Z,22.40
2018-10-05T00:04:46.794Z,22.40
2018-10-05T00:10:02.644Z,22.30
2018-10-05T00:12:31.311Z,22.30
2018-10-05T00:15:03.249Z,22.30
2018-10-05T00:17:52.317Z,22.30
2018-10-05T00:20:20.968Z,22.30
2018-10-05T00:22:50.273Z,22.20
2018-10-05T00:25:18.722Z,22.20
2018-10-05T00:27:47.132Z,22.20
2018-10-05T00:30:15.821Z,22.30
2018-10-05T00:32:44.265Z,22.30
2018-10-05T00:35:12.734Z,22.30
2018-10-05T00:37:41.432Z,22.20
2018-10-05T00:40:09.978Z,22.30
2018-10-05T00:42:39.239Z,22.30
2018-10-05T00:45:07.788Z,22.30
2018-10-05T00:47:37.257Z,22.30
2018-10-05T00:50:06.106Z,22.20
2018-10-05T00:52:35.010Z,22.20
2018-10-05T00:55:03.757Z,22.20
2018-10-05T00:57:32.456Z,22.20
2018-10-05T01:00:01.071Z,22.20
2018-10-05T01:02:30.229Z,22.20
2018-10-05T01:04:58.680Z,22.20
2018-10-05T01:07:27.090Z,22.20
2018-10-05T01:09:55.761Z,22.20
2018-10-05T01:12:24.372Z,22.20
2018-10-05T01:14:53.173Z,22.20
2018-10-05T01:17:21.854Z,22.20
2018-10-05T01:19:50.392Z,22.20
2018-10-05T01:22:18.904Z,22.20
2018-10-05T01:24:47.446Z,22.20
2018-10-05T01:27:16.625Z,22.20
2018-10-05T01:29:45.224Z,22.20
2018-10-05T01:32:13.772Z,22.20
2018-10-05T01:34:42.292Z,22.20
2018-10-05T01:37:10.927Z,22.10
2018-10-05T01:39:39.485Z,22.20
2018-10-05T01:42:08.005Z,22.10
2018-10-05T01:44:36.490Z,22.10
2018-10-05T01:47:04.908Z,22.10
2018-10-05T01:49:33.406Z,22.10
2018-10-05T01:52:01.887Z,22.00
2018-10-05T01:54:30.431Z,22.10
2018-10-05T01:56:59.017Z,22.10
2018-10-05T01:59:27.431Z,22.00
2018-10-05T02:01:55.966Z,22.00
2018-10-05T02:04:25.113Z,22.00
2018-10-05T02:06:53.752Z,22.00
2018-10-05T02:09:22.157Z,22.00
2018-10-05T02:11:50.584Z,22.00
2018-10-05T02:14:19.198Z,22.00
2018-10-05T02:16:47.599Z,22.00
2018-10-05T02:19:16.094Z,22.00
2018-10-05T02:21:45.253Z,22.00
2018-10-05T02:24:14.040Z,22.00
2018-10-05T02:26:42.443Z,22.00
2018-10-05T02:29:10.921Z,21.90
2018-10-05T02:31:39.348Z,21.90
2018-10-05T02:34:07.760Z,21.90
2018-10-05T02:36:37.193Z,21.90
2018-10-05T02:39:08.233Z,21.90
2018-10-05T02:41:36.736Z,21.90
2018-10-05T02:44:05.500Z,21.90
2018-10-05T02:46:33.931Z,21.90
2018-10-05T02:49:02.741Z,21.90
2018-10-05T02:51:31.809Z,21.90
2018-10-05T02:54:00.232Z,21.90
2018-10-05T02:56:28.648Z,21.90
2018-10-05T02:58:57.080Z,21.90
2018-10-05T03:01:37.064Z,21.90
2018-10-05T03:04:05.644Z,21.90
2018-10-05T03:06:34.057Z,21.90
2018-10-05T03:09:02.497Z,21.90
2018-10-05T03:11:30.929Z,21.90
2018-10-05T03:13:59.317Z,21.90
2018-10-05T03:16:27.719Z,21.90
2018-10-05T03:18:56.227Z,21.90
2018-10-05T03:21:24.724Z,21.90
2018-10-05T03:23:53.197Z,21.90
2018-10-05T03:26:21.602Z,21.90
2018-10-05T03:28:50.532Z,21.90
2018-10-05T03:31:19.137Z,21.80
2018-10-05T03:33:47.585Z,21.80
2018-10-05T03:36:15.989Z,21.80
2018-10-05T03:38:44.593Z,21.80
2018-10-05T03:41:13.155Z,21.80
2018-10-05T03:43:41.568Z,21.80
2018-10-05T03:46:10.147Z,21.80
2018-10-05T03:48:39.020Z,21.80
2018-10-05T03:51:07.451Z,21.80
2018-10-05T03:53:36.271Z,21.80
2018-10-05T03:56:05.051Z,21.70
2018-10-05T03:58:33.436Z,21.80
2018-10-05T04:01:02.015Z,21.70
2018-10-05T04:03:30.418Z,21.70
2018-10-05T04:05:58.839Z,21.70
2018-10-05T04:08:27.506Z,21.70
2018-10-05T04:10:55.951Z,21.70
2018-10-05T04:13:24.415Z,21.70
2018-10-05T04:15:52.838Z,21.70
2018-10-05T04:18:21.262Z,21.70
2018-10-05T04:20:49.840Z,21.70
2018-10-05T04:23:19.741Z,21.60
2018-10-05T04:25:48.559Z,21.70
2018-10-05T04:28:17.059Z,21.60
2018-10-05T04:30:45.845Z,21.70
2018-10-05T04:33:14.351Z,21.70
2018-10-05T04:35:42.849Z,21.70
2018-10-05T04:38:11.538Z,21.60
2018-10-05T04:40:40.216Z,21.60
2018-10-05T04:43:08.775Z,21.60
2018-10-05T04:45:37.320Z,21.60
2018-10-05T04:48:06.378Z,21.60
2018-10-05T04:50:34.861Z,21.60
2018-10-05T04:53:03.526Z,21.60
2018-10-05T04:55:32.418Z,21.60
2018-10-05T04:58:01.019Z,21.60
2018-10-05T05:00:29.679Z,21.60
2018-10-05T05:02:58.126Z,21.60
2018-10-05T05:05:26.646Z,21.60
2018-10-05T05:07:55.040Z,21.60
2018-10-05T05:10:23.572Z,21.60
2018-10-05T05:12:52.045Z,21.60
2018-10-05T05:15:20.645Z,21.70
2018-10-05T05:17:49.225Z,21.70
2018-10-05T05:20:17.876Z,21.70
2018-10-05T05:22:46.421Z,21.70
2018-10-05T05:25:14.925Z,21.70
2018-10-05T05:27:44.087Z,21.60
2018-10-05T05:30:12.577Z,21.60
2018-10-05T05:32:42.112Z,21.60
2018-10-05T05:35:11.116Z,21.60
2018-10-05T05:37:40.241Z,21.60
2018-10-05T05:40:08.847Z,21.50
2018-10-05T05:42:37.502Z,21.50
2018-10-05T05:45:06.422Z,21.50
2018-10-05T05:47:35.050Z,21.50
2018-10-05T05:50:04.390Z,21.50
2018-10-05T05:52:33.020Z,21.50
2018-10-05T05:55:22.205Z,21.50
2018-10-05T05:58:07.171Z,21.40
2018-10-05T06:00:35.657Z,21.40
2018-10-05T06:03:04.556Z,21.40
2018-10-05T06:05:33.241Z,21.40
2018-10-05T06:08:01.990Z,21.40
2018-10-05T06:10:30.901Z,21.40
2018-10-05T06:12:59.491Z,21.40
2018-10-05T06:15:28.025Z,21.40
2018-10-05T06:17:57.224Z,21.40
2018-10-05T06:20:33.389Z,21.50
2018-10-05T06:23:01.956Z,21.50
2018-10-05T06:25:30.774Z,21.70
2018-10-05T06:27:59.342Z,21.70
2018-10-05T06:30:28.313Z,21.70
2018-10-05T06:32:57.095Z,21.80
2018-10-05T06:35:25.740Z,21.80
2018-10-05T06:37:54.528Z,21.80
2018-10-05T06:40:23.888Z,21.80
2018-10-05T06:42:52.461Z,21.90
2018-10-05T06:45:21.254Z,21.90
2018-10-05T06:47:49.849Z,21.90
2018-10-05T06:50:18.556Z,22.00
2018-10-05T06:52:47.335Z,21.90
2018-10-05T06:55:16.313Z,21.90
2018-10-05T06:57:44.898Z,21.90
2018-10-05T07:00:13.395Z,21.90
2018-10-05T07:02:42.049Z,21.80
2018-10-05T07:05:11.508Z,21.50
2018-10-05T07:07:40.810Z,21.30
2018-10-05T07:10:09.619Z,21.10
2018-10-05T07:12:38.253Z,20.90
2018-10-05T07:15:07.231Z,20.70
2018-10-05T07:17:35.846Z,20.50
2018-10-05T07:20:04.544Z,20.50
2018-10-05T07:22:33.298Z,20.50
2018-10-05T07:25:02.166Z,20.50
2018-10-05T07:27:30.922Z,20.40
2018-10-05T07:30:00.054Z,20.40
2018-10-05T07:32:28.634Z,20.40
2018-10-05T07:34:57.624Z,20.40
2018-10-05T07:37:27.442Z,20.40
2018-10-05T07:39:58.263Z,20.30
2018-10-05T07:42:26.941Z,20.40
2018-10-05T07:44:55.533Z,20.40
2018-10-05T07:47:24.419Z,20.50
2018-10-05T07:49:53.039Z,20.60
2018-10-05T07:52:21.486Z,20.60
2018-10-05T07:54:49.983Z,20.70
2018-10-05T07:57:18.971Z,20.70
2018-10-05T07:59:48.412Z,20.70
2018-10-05T08:02:17.500Z,20.70
2018-10-05T08:04:46.226Z,20.80
2018-10-05T08:07:15.017Z,20.90
2018-10-05T08:09:43.645Z,21.00
2018-10-05T08:12:12.517Z,21.10
2018-10-05T08:14:40.955Z,21.20
2018-10-05T08:17:09.663Z,21.30
2018-10-05T08:19:38.159Z,21.30
2018-10-05T08:22:06.707Z,21.30
2018-10-05T08:24:35.136Z,21.30
2018-10-05T08:27:03.668Z,21.30
2018-10-05T08:29:32.787Z,21.30
2018-10-05T08:32:01.282Z,21.30
2018-10-05T08:34:29.831Z,21.30
2018-10-05T08:36:58.698Z,21.30
2018-10-05T08:39:27.843Z,21.30
2018-10-05T08:41:56.375Z,21.30
2018-10-05T08:44:25.056Z,21.40
2018-10-05T08:46:53.929Z,21.40
2018-10-05T08:49:22.506Z,21.40
2018-10-05T08:51:51.219Z,21.40
2018-10-05T08:54:19.860Z,21.50
2018-10-05T08:56:48.331Z,21.50
2018-10-05T08:59:16.884Z,21.50
2018-10-05T09:01:45.514Z,21.50
2018-10-05T09:04:14.763Z,21.50
2018-10-05T09:06:43.971Z,21.50
2018-10-05T09:09:13.827Z,21.50
2018-10-05T09:11:42.247Z,21.40
2018-10-05T09:14:11.388Z,21.40
2018-10-05T09:16:40.183Z,21.40
2018-10-05T09:19:08.764Z,21.40
2018-10-05T09:21:37.407Z,21.40
2018-10-05T09:24:06.204Z,21.40
2018-10-05T09:26:34.723Z,21.40
2018-10-05T09:29:03.154Z,21.40
2018-10-05T09:31:31.752Z,21.50
2018-10-05T09:34:00.336Z,21.50
2018-10-05T09:36:28.938Z,21.50
2018-10-05T09:38:57.616Z,21.60
2018-10-05T09:41:26.128Z,21.60
2018-10-05T09:43:54.624Z,21.60
2018-10-05T09:46:23.090Z,21.60
2018-10-05T09:48:52.526Z,21.70
2018-10-05T09:51:21.741Z,21.60
2018-10-05T09:53:50.592Z,21.60
2018-10-05T09:56:19.541Z,21.60
2018-10-05T09:58:48.113Z,21.70
2018-10-05T10:01:21.825Z,21.70
2018-10-05T10:03:50.456Z,21.70
2018-10-05T10:06:19.022Z,21.70
2018-10-05T10:08:48.023Z,21.70
2018-10-05T10:11:16.545Z,21.70
2018-10-05T10:13:45.338Z,21.70
2018-10-05T10:16:14.793Z,21.70
2018-10-05T10:18:43.377Z,21.70
2018-10-05T10:21:12.290Z,21.70
2018-10-05T10:23:40.975Z,21.70
2018-10-05T10:26:10.534Z,21.70
2018-10-05T10:28:39.055Z,21.70
2018-10-05T10:31:07.677Z,21.70
2018-10-05T10:33:36.302Z,21.70
2018-10-05T10:36:04.948Z,21.80
2018-10-05T10:38:33.439Z,21.80
2018-10-05T10:41:02.508Z,21.80
2018-10-05T10:43:31.077Z,21.80
2018-10-05T10:45:59.561Z,21.90
2018-10-05T10:48:28.017Z,21.90
2018-10-05T10:50:56.496Z,21.90
2018-10-05T10:53:24.939Z,21.90
2018-10-05T10:55:53.439Z,22.00
2018-10-05T10:58:21.953Z,22.00
2018-10-05T11:00:50.609Z,22.00
2018-10-05T11:03:19.183Z,22.00
2018-10-05T11:05:47.942Z,22.00
2018-10-05T11:08:16.321Z,22.10
2018-10-05T11:10:45.116Z,22.00
2018-10-05T11:13:13.890Z,22.00
2018-10-05T11:15:42.308Z,22.00
2018-10-05T11:18:10.876Z,22.10
2018-10-05T11:20:40.004Z,22.10
2018-10-05T11:23:09.198Z,22.10
2018-10-05T11:25:37.556Z,22.10
2018-10-05T11:28:05.985Z,22.10
2018-10-05T11:30:34.657Z,22.10
2018-10-05T11:33:03.019Z,22.20
2018-10-05T11:35:31.457Z,22.20
2018-10-05T11:38:00.733Z,22.10
2018-10-05T11:40:30.141Z,22.10
2018-10-05T11:42:58.568Z,22.20
2018-10-05T11:45:26.955Z,22.20
2018-10-05T11:47:55.476Z,22.20
2018-10-05T11:50:24.215Z,22.20
2018-10-05T11:52:52.640Z,22.30
2018-10-05T11:55:21.055Z,22.30
2018-10-05T11:57:49.487Z,22.30
2018-10-05T12:00:19.083Z,22.30
2018-10-05T12:02:48.162Z,22.30
2018-10-05T12:05:17.220Z,22.30
2018-10-05T12:07:45.800Z,22.40
2018-10-05T12:10:14.794Z,22.30
2018-10-05T12:12:43.292Z,22.40
2018-10-05T12:15:12.437Z,22.40
2018-10-05T12:17:41.096Z,22.40
2018-10-05T12:20:10.859Z,22.40
2018-10-05T12:22:39.745Z,22.50
2018-10-05T12:25:09.471Z,22.50
2018-10-05T12:27:38.144Z,22.60
2018-10-05T12:30:06.586Z,22.60
2018-10-05T12:32:35.164Z,22.60
2018-10-05T12:35:04.393Z,22.60
2018-10-05T12:37:32.816Z,22.70
2018-10-05T12:40:01.225Z,22.70
2018-10-05T12:42:30.226Z,22.70
2018-10-05T12:44:58.658Z,22.70
2018-10-05T12:47:27.293Z,22.70
2018-10-05T12:49:55.788Z,22.80
2018-10-05T12:52:24.891Z,22.80
2018-10-05T12:54:53.497Z,22.80
2018-10-05T12:57:21.955Z,22.90
2018-10-05T12:59:50.335Z,22.90
2018-10-05T13:02:18.862Z,22.90
2018-10-05T13:04:47.249Z,22.90
2018-10-05T13:07:15.990Z,22.90
2018-10-05T13:09:44.520Z,23.00
2018-10-05T13:12:13.137Z,23.00
2018-10-05T13:14:42.554Z,23.00
2018-10-05T13:17:11.311Z,23.00
2018-10-05T13:19:39.855Z,23.10
2018-10-05T13:22:09.044Z,23.10
2018-10-05T13:24:37.973Z,23.10
2018-10-05T13:27:06.875Z,23.10
2018-10-05T13:29:35.386Z,23.10
2018-10-05T13:32:04.007Z,23.10
2018-10-05T13:34:32.745Z,23.20
2018-10-05T13:37:01.453Z,23.10
2018-10-05T13:39:30.515Z,23.10
2018-10-05T13:41:59.410Z,23.20
2018-10-05T13:44:28.729Z,23.20
2018-10-05T13:46:57.396Z,23.30
2018-10-05T13:49:25.843Z,23.30
2018-10-05T13:51:54.733Z,23.30
2018-10-05T13:54:23.220Z,23.30
2018-10-05T13:56:51.608Z,23.30
2018-10-05T13:59:20.014Z,23.40
2018-10-05T14:01:48.417Z,23.40
2018-10-05T14:04:16.863Z,23.40
2018-10-05T14:06:45.518Z,23.40
2018-10-05T14:09:13.973Z,23.40
2018-10-05T14:11:42.516Z,23.40
2018-10-05T14:14:11.282Z,23.50
2018-10-05T14:16:39.805Z,23.50
2018-10-05T14:19:08.422Z,23.50
2018-10-05T14:21:36.898Z,23.50
2018-10-05T14:24:05.344Z,23.60
2018-10-05T14:26:34.239Z,23.60
2018-10-05T14:29:02.779Z,23.60
2018-10-05T14:31:31.292Z,23.60
2018-10-05T14:33:59.717Z,23.60
2018-10-05T14:36:28.177Z,23.70
2018-10-05T14:38:56.608Z,23.70
2018-10-05T14:41:25.241Z,23.70
2018-10-05T14:43:54.110Z,23.70
2018-10-05T14:46:22.796Z,23.70
2018-10-05T14:48:51.196Z,23.70
2018-10-05T14:51:19.712Z,23.70
2018-10-05T14:53:48.092Z,23.80
2018-10-05T14:56:16.469Z,23.80
2018-10-05T14:58:45.144Z,23.80
2018-10-05T15:01:13.769Z,23.80
2018-10-05T15:03:42.216Z,23.80
2018-10-05T15:06:10.652Z,23.80
2018-10-05T15:08:39.077Z,23.80
2018-10-05T15:11:07.689Z,23.80
2018-10-05T15:13:36.521Z,23.80
2018-10-05T15:16:04.924Z,23.80
2018-10-05T15:18:33.600Z,23.80
2018-10-05T15:21:02.062Z,23.80
2018-10-05T15:23:31.523Z,23.80
2018-10-05T15:26:00.144Z,23.80
2018-10-05T15:28:29.001Z,23.80
2018-10-05T15:30:57.429Z,23.80
2018-10-05T15:33:25.908Z,23.80
2018-10-05T15:35:54.367Z,23.80
2018-10-05T15:38:22.747Z,23.80
2018-10-05T15:40:51.209Z,23.80
2018-10-05T15:43:19.600Z,23.80
2018-10-05T15:45:48.339Z,23.80
2018-10-05T15:48:17.045Z,23.80
2018-10-05T15:50:46.288Z,23.80
2018-10-05T15:53:14.843Z,23.80
2018-10-05T15:55:43.371Z,23.80
2018-10-05T15:58:11.789Z,23.80
2018-10-05T16:00:41.116Z,23.80
2018-10-05T16:03:09.645Z,23.80
2018-10-05T16:05:38.395Z,23.80
2018-10-05T16:08:07.420Z,23.80
2018-10-05T16:10:35.837Z,23.80
2018-10-05T16:13:04.215Z,23.80
2018-10-05T16:15:32.788Z,23.80
2018-10-05T16:18:01.225Z,23.80
2018-10-05T16:20:29.826Z,23.80
2018-10-05T16:22:58.229Z,23.80
2018-10-05T16:25:26.689Z,23.80
2018-10-05T16:27:55.255Z,23.80
2018-10-05T16:30:23.750Z,23.80
2018-10-05T16:32:52.379Z,23.80
2018-10-05T16:35:21.095Z,23.80
2018-10-05T16:37:49.918Z,23.80
2018-10-05T16:40:18.372Z,23.80
2018-10-05T16:42:46.850Z,23.80
2018-10-05T16:45:16.148Z,23.70
2018-10-05T16:47:44.805Z,23.80
2018-10-05T16:50:13.227Z,23.70
2018-10-05T16:52:41.615Z,23.80
2018-10-05T16:55:10.181Z,23.80
2018-10-05T16:57:38.696Z,23.70
2018-10-05T17:00:07.475Z,23.70
2018-10-05T17:02:36.131Z,23.80
2018-10-05T17:05:04.598Z,23.80
2018-10-05T17:07:33.233Z,23.80
2018-10-05T17:10:01.689Z,23.80
2018-10-05T17:12:30.155Z,23.70
2018-10-05T17:14:59.291Z,23.70
2018-10-05T17:17:28.623Z,23.70
2018-10-05T17:19:57.169Z,23.70
2018-10-05T17:22:25.919Z,23.80
2018-10-05T17:24:54.574Z,23.80
2018-10-05T17:27:23.380Z,23.80
2018-10-05T17:29:53.817Z,23.80
2018-10-05T17:32:22.416Z,23.80
2018-10-05T17:34:51.972Z,23.80
2018-10-05T17:37:20.828Z,23.90
2018-10-05T17:39:49.397Z,23.90
2018-10-05T17:42:18.105Z,24.10
2018-10-05T17:44:46.670Z,24.20
2018-10-05T17:47:15.297Z,24.30
2018-10-05T17:49:43.961Z,24.40
2018-10-05T17:52:12.732Z,24.50
2018-10-05T17:54:41.389Z,24.40
2018-10-05T17:57:10.513Z,24.50
2018-10-05T17:59:39.235Z,24.50
2018-10-05T18:02:07.820Z,24.50
2018-10-05T18:04:36.595Z,24.50
2018-10-05T18:07:05.487Z,24.50
2018-10-05T18:09:34.750Z,24.50
2018-10-05T18:12:05.561Z,24.50
2018-10-05T18:14:34.269Z,24.50
2018-10-05T18:17:02.925Z,24.50
2018-10-05T18:19:40.492Z,24.50
2018-10-05T18:22:11.136Z,24.60
2018-10-05T18:24:45.403Z,24.70
2018-10-05T18:27:16.952Z,24.70
2018-10-05T18:29:48.081Z,24.70
2018-10-05T18:32:21.336Z,24.80
2018-10-05T18:34:49.931Z,24.80
2018-10-05T18:37:18.996Z,24.90
2018-10-05T18:39:48.171Z,24.80
2018-10-05T18:42:18.553Z,24.80
2018-10-05T18:44:55.476Z,24.80
2018-10-05T18:47:24.188Z,24.80
2018-10-05T18:49:52.778Z,24.70
2018-10-05T18:52:21.699Z,24.70
2018-10-05T18:54:50.977Z,24.70
2018-10-05T18:57:20.787Z,24.70
2018-10-05T18:59:50.056Z,24.60
2018-10-05T19:02:18.995Z,24.60
2018-10-05T19:04:48.077Z,24.50
2018-10-05T19:07:17.801Z,24.50
2018-10-05T19:09:46.312Z,24.50
2018-10-05T19:12:15.064Z,24.50
2018-10-05T19:14:44.208Z,24.50
2018-10-05T19:17:12.845Z,24.50
2018-10-05T19:19:41.650Z,24.50
2018-10-05T19:22:10.548Z,24.40
2018-10-05T19:24:39.274Z,24.40
2018-10-05T19:27:08.455Z,24.40
2018-10-05T19:29:37.079Z,24.40
2018-10-05T19:32:06.717Z,24.40
2018-10-05T19:34:35.291Z,24.40
2018-10-05T19:37:03.876Z,24.30
2018-10-05T19:39:32.474Z,24.30
2018-10-05T19:42:01.005Z,24.30
2018-10-05T19:44:29.704Z,24.30
2018-10-05T19:46:58.304Z,24.30
2018-10-05T19:49:27.579Z,24.30
2018-10-05T19:51:58.135Z,24.30
2018-10-05T19:54:27.611Z,24.30
2018-10-05T19:56:56.228Z,24.30
2018-10-05T19:59:25.249Z,24.30
2018-10-05T20:01:55.078Z,24.30
2018-10-05T20:04:24.407Z,24.30
2018-10-05T20:06:53.970Z,24.30
2018-10-05T20:09:22.616Z,24.30
2018-10-05T20:11:51.194Z,24.30
2018-10-05T20:14:19.788Z,24.30
2018-10-05T20:16:49.189Z,24.20
2018-10-05T20:19:18.273Z,24.10
2018-10-05T20:21:47.506Z,24.10
2018-10-05T20:24:16.623Z,24.00
2018-10-05T20:26:45.840Z,23.90
2018-10-05T20:29:14.524Z,23.90
2018-10-05T20:31:47.552Z,23.80
2018-10-05T20:34:16.377Z,23.80
2018-10-05T20:36:45.383Z,23.80
2018-10-05T20:39:13.820Z,23.70
2018-10-05T20:41:49.050Z,23.70
2018-10-05T20:44:17.483Z,23.70
2018-10-05T20:46:46.014Z,23.70
2018-10-05T20:49:14.478Z,23.70
2018-10-05T20:51:43.219Z,23.70
2018-10-05T20:54:11.769Z,23.70
2018-10-05T20:56:40.570Z,23.60
2018-10-05T20:59:14.778Z,23.60
2018-10-05T21:01:44.681Z,23.60
2018-10-05T21:04:13.321Z,23.60
2018-10-05T21:06:42.190Z,23.60
2018-10-05T21:09:11.324Z,23.60
2018-10-05T21:11:40.211Z,23.50
2018-10-05T21:14:08.857Z,23.50
2018-10-05T21:16:37.364Z,23.50
2018-10-05T21:19:06.407Z,23.50
2018-10-05T21:21:34.966Z,23.50
2018-10-05T21:24:04.697Z,23.50
2018-10-05T21:26:34.616Z,23.50
2018-10-05T21:29:03.093Z,23.40
2018-10-05T21:31:31.878Z,23.40
2018-10-05T21:34:00.823Z,23.40
2018-10-05T21:36:29.639Z,23.40
2018-10-05T21:38:58.309Z,23.40
2018-10-05T21:41:27.341Z,23.40
2018-10-05T21:43:56.015Z,23.30
2018-10-05T21:46:24.979Z,23.30
2018-10-05T21:48:56.155Z,23.30
2018-10-05T21:51:24.975Z,23.30
2018-10-05T21:53:53.851Z,23.30
2018-10-05T21:56:22.654Z,23.30
2018-10-05T21:58:51.183Z,23.30
2018-10-05T22:01:20.377Z,23.30
2018-10-05T22:03:51.133Z,23.30
2018-10-05T22:06:20.246Z,23.30
2018-10-05T22:08:51.217Z,23.20
2018-10-05T22:11:19.848Z,23.20
2018-10-05T22:13:48.447Z,23.20
2018-10-05T22:16:17.802Z,23.20
2018-10-05T22:18:46.767Z,23.20
2018-10-05T22:21:15.649Z,23.20
2018-10-05T22:23:45.096Z,23.20
2018-10-05T22:26:15.069Z,23.20
2018-10-05T22:28:44.267Z,23.20
2018-10-05T22:31:17.859Z,23.20
2018-10-05T22:33:46.577Z,23.10
2018-10-05T22:36:15.004Z,23.10
2018-10-05T22:38:43.513Z,23.10
2018-10-05T22:41:12.209Z,23.10
2018-10-05T22:43:40.711Z,23.10
2018-10-05T22:46:10.029Z,23.10
2018-10-05T22:48:39.412Z,23.10
2018-10-05T22:51:08.254Z,23.10
2018-10-05T22:53:36.672Z,23.10
2018-10-05T22:56:05.315Z,23.10
2018-10-05T22:58:33.842Z,23.10
2018-10-05T23:01:02.388Z,23.10
2018-10-05T23:03:31.606Z,23.10
2018-10-05T23:06:00.444Z,23.10
2018-10-05T23:08:29.544Z,23.10
2018-10-05T23:10:58.029Z,23.10
2018-10-05T23:13:26.665Z,23.10
2018-10-05T23:15:55.140Z,23.10
2018-10-05T23:18:23.662Z,23.10
2018-10-05T23:20:52.761Z,23.10
2018-10-05T23:23:21.199Z,23.10
2018-10-05T23:25:49.790Z,23.10
2018-10-05T23:28:18.302Z,23.00
2018-10-05T23:30:46.907Z,23.10
2018-10-05T23:33:15.557Z,23.00
2018-10-05T23:35:43.988Z,23.00
2018-10-05T23:38:12.456Z,23.00
2018-10-05T23:40:40.895Z,23.00
2018-10-05T23:43:10.498Z,23.00
2018-10-05T23:45:38.897Z,23.00
2018-10-05T23:48:07.654Z,23.00
2018-10-05T23:50:36.197Z,22.90
2018-10-05T23:53:04.731Z,23.00
2018-10-05T23:55:33.271Z,23.00
2018-10-05T23:58:01.863Z,23.00
